Latest Weather Observations for St Helens

IDT60801

Issued at 6:05 pm EST Sunday 31 August 2014 (issued every 30 minutes, with the page automatically refreshed every 10 minutes)

About weather observations | Map of weather stations | Latest weather observations for TAS | Other Formats
Station Details ID: 092120 Name: ST HELENS AERODROME Lat: -41.34 Lon: 148.28 Height: 48.0 m
Data from the previous 72 hours. | See also: Recent months at St Helens
Date/Time
EST
Temp
°C
App
Temp
°C
Dew
Point
Rel
Hum
%
Delta-T
°C
Wind Press
QNH
hPa
Press
MSL
hPa
Rain
since 9 am
mm
Dir
 
Spd
km/h
Gust
km/h
Spd
kts
Gust
kts
31/06:00pm 14.2 11.0 7.0 62 3.5 N 13 17 7 9 1013.6 1013.6 0.2
31/05:30pm 14.8 10.9 7.1 60 3.8 N 17 22 9 12 1013.7 - 0.2
31/05:00pm 15.2 11.8 7.5 60 3.8 NNW 15 24 8 13 1013.8 - 0.2
31/04:30pm 15.6 12.7 8.1 61 3.8 NNW 13 20 7 11 1013.7 - 0.2
31/04:00pm 16.7 14.4 8.9 60 4.0 NNW 11 20 6 11 1014.0 - 0.2
31/03:30pm 17.5 15.8 9.7 60 4.1 NNW 9 19 5 10 1014.1 - 0.2
31/03:00pm 17.2 14.3 9.6 61 4.0 NNW 15 26 8 14 1014.4 1014.5 0.2
31/02:30pm 16.9 13.9 9.1 60 4.0 NNW 15 24 8 13 1014.7 - 0.2
31/02:00pm 17.5 14.9 9.2 58 4.3 NW 13 26 7 14 1014.9 - 0.2
31/01:30pm 17.4 14.8 9.3 59 4.2 NNW 13 26 7 14 1015.3 - 0.2
31/01:00pm 16.9 14.8 9.6 62 3.8 NW 11 19 6 10 1015.8 - 0.2
31/12:30pm 16.9 13.7 10.1 64 3.6 NW 17 28 9 15 1016.1 - 0.2
31/12:00pm 16.4 13.0 9.3 63 3.7 NW 17 28 9 15 1016.7 1016.9 0.2
31/11:30am 16.1 13.5 9.5 65 3.4 NW 13 22 7 12 1017.2 - 0.0
31/11:00am 15.0 11.5 8.9 67 3.1 NNW 17 30 9 16 1017.6 - 0.0
31/10:30am 14.3 11.6 8.9 70 2.7 WNW 13 26 7 14 1018.1 - 0.0
31/10:00am 14.5 11.1 9.1 70 2.8 NNW 17 28 9 15 1018.5 - 0.0
31/09:30am 13.9 11.8 9.7 76 2.2 NNW 11 20 6 11 1019.0 - 0.0
31/09:00am 11.3 9.9 9.7 90 0.8 WNW 7 13 4 7 1019.2 1019.3 0.2
31/08:30am 8.6 7.5 8.3 98 0.1 WNW 4 11 2 6 1019.5 - 0.2
31/08:00am 6.5 5.7 6.4 99 0.0 CALM 0 0 0 0 1019.8 - 0.2
31/07:30am 5.4 4.0 5.3 99 0.0 NNW 2 7 1 4 1019.7 - 0.2
31/07:00am 5.1 3.2 5.0 99 0.0 WNW 4 7 2 4 1019.8 - 0.2
31/06:30am 4.9 2.9 4.6 98 0.1 N 4 9 2 5 1019.8 - 0.2
31/06:00am 5.1 3.2 4.8 98 0.1 N 4 9 2 5 1019.7 1019.8 0.2
31/05:30am 5.4 3.2 5.1 98 0.1 WNW 6 9 3 5 1019.8 - 0.2
31/05:00am 5.5 3.7 5.2 98 0.1 NE 4 7 2 4 1019.9 - 0.2
31/04:30am 5.6 4.1 5.2 97 0.2 N 2 7 1 4 1019.9 - 0.2
31/04:00am 5.4 4.3 5.0 97 0.2 CALM 0 2 0 1 1020.1 - 0.2
31/03:30am 5.9 4.9 5.5 97 0.2 CALM 0 7 0 4 1020.4 - 0.2
31/03:00am 6.5 4.3 6.1 97 0.2 NW 7 15 4 8 1020.8 1020.9 0.2
31/02:30am 5.9 4.5 5.5 97 0.2 NNE 2 7 1 4 1021.0 - 0.2
31/02:00am 6.1 4.0 5.7 97 0.2 NE 6 9 3 5 1021.6 - 0.2
31/01:30am 6.4 4.7 6.0 97 0.2 NE 4 7 2 4 1021.8 - 0.2
31/01:00am 6.2 4.5 5.8 97 0.2 NNW 4 9 2 5 1022.2 - 0.2
31/12:30am 6.4 4.2 6.0 97 0.2 N 7 11 4 6 1022.6 - 0.2
31/12:00am 6.6 4.0 6.2 97 0.2 NW 9 11 5 6 1023.0 1023.1 0.2
 
Date/Time
EST
Temp
°C
App
Temp
°C
Dew
Point
Rel
Hum
%
Delta-T
°C
Wind Press
QNH
hPa
Press
MSL
hPa
Rain
since 9 am
mm
Dir
 
Spd
km/h
Gust
km/h
Spd
kts
Gust
kts
30/11:30pm 6.6 3.6 6.0 96 0.3 NNW 11 13 6 7 1023.4 - 0.2
30/11:00pm 6.8 4.3 6.4 97 0.2 N 9 11 5 6 1023.8 - 0.2
30/10:30pm 7.1 4.6 6.5 96 0.3 NNW 9 13 5 7 1024.2 - 0.2
30/10:00pm 7.0 4.1 6.4 96 0.3 N 11 13 6 7 1024.4 - 0.2
30/09:30pm 7.2 4.7 6.6 96 0.3 NNW 9 11 5 6 1024.7 - 0.2
30/09:00pm 7.7 5.7 7.0 95 0.3 NNW 7 11 4 6 1024.7 1024.8 0.2
30/08:30pm 8.1 6.1 7.2 94 0.4 NNW 7 9 4 5 1024.7 - 0.2
30/08:00pm 9.2 8.6 7.5 89 0.8 CALM 0 6 0 3 1024.8 - 0.2
30/07:30pm 10.3 9.7 7.5 83 1.3 CALM 0 7 0 4 1024.9 - 0.2
30/07:00pm 10.6 10.0 7.5 81 1.5 CALM 0 0 0 0 1025.0 - 0.2
30/06:30pm 11.4 9.7 7.7 78 1.8 N 6 7 3 4 1025.3 - 0.2
30/06:00pm 11.6 9.6 7.3 75 2.1 NNE 7 13 4 7 1025.4 1025.5 0.2
30/05:30pm 12.3 9.6 7.2 71 2.5 NNE 11 17 6 9 1025.3 - 0.2
30/05:00pm 13.1 10.0 7.1 67 2.9 NNE 13 20 7 11 1025.2 - 0.2
30/04:30pm 13.6 10.0 6.9 64 3.2 NNE 15 22 8 12 1025.4 - 0.2
30/04:00pm 14.1 11.1 7.6 65 3.2 NE 13 19 7 10 1025.5 - 0.2
30/03:30pm 14.5 10.9 6.8 60 3.8 NE 15 22 8 12 1025.6 - 0.2
30/03:00pm 14.1 9.7 6.5 60 3.6 NE 19 24 10 13 1025.8 1025.9 0.2
30/02:30pm 14.6 10.7 7.2 61 3.6 NE 17 22 9 12 1026.0 - 0.2
30/02:00pm 14.7 11.2 7.3 61 3.6 NE 15 20 8 11 1026.3 - 0.2
30/01:30pm 14.5 10.6 7.1 61 3.6 NNE 17 26 9 14 1026.6 - 0.2
30/01:00pm 14.4 11.0 7.5 63 3.4 NNE 15 20 8 11 1026.9 - 0.2
30/12:30pm 15.1 11.8 7.9 62 3.6 NNE 15 20 8 11 1027.3 - 0.0
30/12:00pm 14.2 10.6 6.8 61 3.6 NNE 15 20 8 11 1027.8 1027.9 0.0
30/11:30am 14.1 11.2 8.1 67 3.0 NNE 13 19 7 10 1028.4 - 0.0
30/11:00am 13.7 10.8 8.1 69 2.8 NNE 13 17 7 9 1028.8 - 0.0
30/10:30am 13.1 11.1 8.6 74 2.3 N 9 15 5 8 1029.1 - 0.0
30/10:00am 12.8 10.9 8.9 77 2.0 N 9 13 5 7 1029.5 - 0.0
30/09:30am 13.3 12.0 9.9 80 1.8 N 7 11 4 6 1029.6 - 0.0
30/09:00am 12.0 11.9 10.7 92 0.7 NW 2 6 1 3 1029.9 1029.9 0.2
30/08:30am 10.4 9.1 10.1 98 0.2 NW 7 7 4 4 1030.1 - 0.2
30/08:00am 9.8 8.1 9.7 99 0.1 NW 9 11 5 6 1030.2 - 0.2
30/07:30am 9.3 7.8 9.2 99 0.0 NW 7 9 4 5 1030.1 - 0.2
30/07:00am 9.1 7.7 9.0 99 0.0 NNW 6 9 3 5 1029.9 - 0.2
30/06:30am 8.8 7.2 8.7 99 0.0 NNW 7 9 4 5 1029.6 - 0.2
30/06:00am 9.1 7.6 9.0 99 0.0 NNW 7 9 4 5 1029.6 1029.6 0.2
30/05:30am 9.0 8.8 8.9 99 0.0 CALM 0 0 0 0 1029.5 - 0.2
30/05:00am 9.1 7.2 9.0 99 0.0 NW 9 11 5 6 1029.5 - 0.2
30/04:30am 9.0 7.1 8.9 99 0.0 NNW 9 11 5 6 1029.5 - 0.2
30/04:00am 8.8 6.8 8.7 99 0.0 NW 9 11 5 6 1029.7 - 0.2
30/03:30am 8.6 6.2 8.5 99 0.0 NW 11 13 6 7 1029.7 - 0.2
30/03:00am 8.8 6.8 8.7 99 0.0 N 9 11 5 6 1029.7 1029.8 0.2
30/02:30am 8.5 6.4 8.4 99 0.0 NW 9 13 5 7 1029.9 - 0.2
30/02:00am 8.3 6.2 8.2 99 0.0 NW 9 13 5 7 1030.2 - 0.2
30/01:30am 8.3 6.2 8.2 99 0.0 NNW 9 11 5 6 1030.3 - 0.2
30/01:00am 7.9 5.7 7.8 99 0.0 NW 9 11 5 6 1030.4 - 0.2
30/12:30am 8.0 5.0 7.9 99 0.0 NNW 13 15 7 8 1030.5 - 0.2
30/12:00am 8.0 5.0 7.9 99 0.0 NNW 13 15 7 8 1030.5 1030.5 0.2
 
Date/Time
EST
Temp
°C
App
Temp
°C
Dew
Point
Rel
Hum
%
Delta-T
°C
Wind Press
QNH
hPa
Press
MSL
hPa
Rain
since 9 am
mm
Dir
 
Spd
km/h
Gust
km/h
Spd
kts
Gust
kts
29/11:30pm 8.1 5.6 8.0 99 0.0 NW 11 13 6 7 1030.5 - 0.2
29/11:00pm 8.1 5.5 7.8 98 0.1 NNW 11 13 6 7 1030.5 - 0.2
29/10:30pm 8.2 5.6 7.9 98 0.1 NNW 11 13 6 7 1030.6 - 0.2
29/10:00pm 8.5 6.0 8.2 98 0.1 NNW 11 13 6 7 1030.6 - 0.2
29/09:30pm 8.6 6.1 8.2 97 0.2 NNW 11 13 6 7 1030.6 - 0.2
29/09:00pm 8.8 7.1 8.4 97 0.2 N 7 9 4 5 1030.6 1030.6 0.2
29/08:30pm 9.1 7.6 8.5 96 0.3 NNW 6 7 3 4 1030.5 - 0.2
29/08:00pm 9.6 8.2 8.7 94 0.4 NNW 6 7 3 4 1030.4 - 0.2
29/07:30pm 11.1 11.2 10.0 93 0.6 CALM 0 0 0 0 1030.2 - 0.2
29/07:00pm 11.3 11.3 9.7 90 0.8 CALM 0 0 0 0 1030.1 - 0.2
29/06:30pm 11.9 11.6 10.1 89 0.9 N 2 6 1 3 1029.9 - 0.2
29/06:00pm 12.2 11.2 10.3 88 1.0 N 6 7 3 4 1029.6 1029.7 0.2
29/05:30pm 12.7 12.4 10.2 85 1.3 NNE 2 9 1 5 1029.4 - 0.2
29/05:00pm 13.6 11.2 10.0 79 1.9 NE 13 20 7 11 1029.3 - 0.2
29/04:30pm 14.3 11.4 9.5 73 2.5 NE 15 20 8 11 1029.1 - 0.2
29/04:00pm 15.0 12.2 8.7 66 3.2 NE 13 20 7 11 1029.0 - 0.2
29/03:30pm 14.6 11.9 8.8 68 2.9 NE 13 20 7 11 1028.9 - 0.2
29/03:00pm 14.9 11.3 9.7 71 2.7 NE 19 24 10 13 1028.9 1029.0 0.2
29/02:30pm 15.1 11.9 9.9 71 2.7 NE 17 24 9 13 1029.0 - 0.2
29/02:00pm 15.6 12.2 9.1 65 3.3 NE 17 22 9 12 1029.1 - 0.2
29/01:30pm 15.8 12.7 8.8 63 3.6 NE 15 22 8 12 1029.2 - 0.2
29/01:00pm 16.1 13.4 9.1 63 3.6 ENE 13 20 7 11 1029.2 - 0.2
29/12:30pm 14.5 12.2 7.5 63 3.5 N 9 13 5 7 1029.4 - 0.2
29/12:00pm 15.8 13.5 7.3 57 4.2 NNE 9 13 5 7 1029.7 1029.8 0.2
29/11:30am 15.6 13.8 7.1 57 4.2 NNW 6 11 3 6 1030.2 - 0.0
29/11:00am 14.6 12.8 8.1 65 3.3 N 7 11 4 6 1030.2 - 0.0
29/10:30am 15.0 13.5 8.5 65 3.3 NNW 6 7 3 4 1030.2 - 0.0
29/10:00am 13.0 12.7 8.7 75 2.2 CALM 0 0 0 0 1030.3 - 0.0
29/09:30am 10.7 10.2 7.9 83 1.4 CALM 0 7 0 4 1030.6 - 0.0
29/09:00am 8.9 7.5 7.2 89 0.8 WNW 4 9 2 5 1030.6 1030.6 0.0
29/08:30am 7.3 4.4 6.6 95 0.3 NW 11 13 6 7 1030.5 - 0.0
29/08:00am 6.1 3.1 6.0 99 0.0 NW 11 13 6 7 1030.4 - 0.0
29/07:30am 5.2 1.2 5.1 99 0.0 NNW 15 17 8 9 1030.1 - 0.0
29/07:00am 4.7 1.0 4.6 99 0.0 NNW 13 15 7 8 1029.7 - 0.0
29/06:30am 5.0 1.4 4.9 99 0.0 NNW 13 17 7 9 1029.2 - 0.0
29/06:00am 5.0 2.1 4.7 98 0.1 NNW 9 13 5 7 1029.1 1029.2 0.0
29/05:30am 5.3 2.5 5.0 98 0.1 NNW 9 13 5 7 1028.9 - 0.0
29/05:00am 5.3 1.3 5.0 98 0.1 NNW 15 17 8 9 1028.8 - 0.0
29/04:30am 5.5 1.9 5.2 98 0.1 NNW 13 13 7 7 1029.0 - 0.0
29/04:00am 5.9 3.2 5.5 97 0.2 NNW 9 13 5 7 1029.1 - 0.0
29/03:30am 5.6 2.4 5.2 97 0.2 NNW 11 15 6 8 1028.9 - 0.0
29/03:00am 6.2 3.1 5.6 96 0.3 NNW 11 13 6 7 1028.8 1028.9 0.0
29/02:30am 7.3 5.1 6.1 92 0.5 NNW 7 11 4 6 1028.9 - 0.0
29/02:00am 7.0 4.8 6.1 94 0.4 NW 7 9 4 5 1029.0 - 0.0
29/01:30am 6.9 4.8 6.0 94 0.4 W 6 7 3 4 1029.2 - 0.0
29/01:00am 7.3 5.3 6.2 93 0.5 WNW 6 9 3 5 1029.3 - 0.0
29/12:30am 7.6 5.7 6.9 95 0.3 W 6 9 3 5 1029.3 - 0.0
29/12:00am 7.3 6.1 6.6 95 0.3 NNE 2 7 1 4 1029.3 1029.4 0.0
 
Date/Time
EST
Temp
°C
App
Temp
°C
Dew
Point
Rel
Hum
%
Delta-T
°C
Wind Press
QNH
hPa
Press
MSL
hPa
Rain
since 9 am
mm
Dir
 
Spd
km/h
Gust
km/h
Spd
kts
Gust
kts
28/11:30pm 7.6 5.6 6.9 95 0.3 N 7 9 4 5 1029.1 - 0.0
28/11:00pm 7.4 5.3 6.5 94 0.4 N 7 9 4 5 1029.2 - 0.0
28/10:30pm 8.3 6.3 7.2 93 0.5 N 7 9 4 5 1029.4 - 0.0
28/10:00pm 8.5 6.7 7.3 92 0.6 N 6 7 3 4 1029.4 - 0.0
28/09:30pm 9.2 7.9 7.5 89 0.8 NNW 4 9 2 5 1029.3 - 0.0
28/09:00pm 9.7 9.3 8.3 91 0.7 CALM 0 0 0 0 1029.1 1029.2 0.0
28/08:30pm 10.5 8.6 7.6 82 1.4 N 7 9 4 5 1029.0 - 0.0
28/08:00pm 11.0 10.5 7.7 80 1.6 CALM 0 0 0 0 1029.1 - 0.0
28/07:30pm 11.0 10.6 8.2 83 1.4 CALM 0 0 0 0 1029.0 - 0.0
28/07:00pm 11.7 11.4 8.6 81 1.5 CALM 0 6 0 3 1029.0 - 0.0
28/06:30pm 12.3 9.7 9.3 82 1.5 N 13 19 7 10 1028.8 - 0.0

Other Formats:

Comma delimited format used in spreadsheet applications
http://www.bom.gov.au/fwo/IDT60801/IDT60801.95981.axf

JavaScript Object Notation format (JSON) in row-major order
http://www.bom.gov.au/fwo/IDT60801/IDT60801.95981.json